Time;durP1;ratioP1;P1;durP2;ratioP2;P2;SDS_P1;SDS_P2;PMS_P1;PMS_P2;Temp;Humidity;BMP_temperature;BMP_pressure;BME280_temperature;BME280_humidity;BME280_pressure;Samples;Min_cycle;Max_cycle;Signal;HPM_P1;HPM_P2
2022/11/07 00:01:59;;;;;;;1999.90;999.90;;;;;;;10.88;100.00;95288.19;5017024;28;20182;-58
2022/11/07 00:04:29;;;;;;;1999.90;999.90;;;;;;;10.82;100.00;95292.56;5016217;28;20196;-57
2022/11/07 00:06:54;;;;;;;1999.90;999.90;;;;;;;10.79;100.00;95296.91;5016767;28;20181;-57
2022/11/07 00:09:20;;;;;;;1999.90;999.90;;;;;;;10.77;100.00;95293.78;5016373;28;20175;-58
2022/11/07 00:11:45;;;;;;;1999.90;999.90;;;;;;;10.77;100.00;95287.53;5016161;28;20171;-57
2022/11/07 00:14:18;;;;;;;1999.90;999.90;;;;;;;10.78;100.00;95289.09;5015981;28;20274;-58
2022/11/07 00:16:45;;;;;;;1999.90;999.90;;;;;;;10.78;100.00;95300.78;5016322;28;20186;-57
2022/11/07 00:19:15;;;;;;;1999.90;999.90;;;;;;;10.79;100.00;95285.97;5018381;28;20587;-59
2022/11/07 00:21:41;;;;;;;1999.90;999.90;;;;;;;10.81;100.00;95293.75;5019119;28;20224;-57
2022/11/07 00:24:08;;;;;;;1999.90;999.90;;;;;;;10.84;100.00;95298.38;5019277;28;20174;-57
2022/11/07 00:26:34;;;;;;;1999.90;999.90;;;;;;;10.83;100.00;95296.84;5019013;28;20179;-57
2022/11/07 00:28:59;;;;;;;1999.90;999.90;;;;;;;10.79;100.00;95310.56;5019747;28;20179;-57
2022/11/07 00:31:25;;;;;;;1999.90;999.90;;;;;;;10.71;100.00;95305.56;5019266;28;20175;-57
2022/11/07 00:33:51;;;;;;;1999.90;999.90;;;;;;;10.60;100.00;95310.38;5019785;28;20178;-57
2022/11/07 00:36:23;;;;;;;1999.90;999.90;;;;;;;10.53;100.00;95310.44;5019542;28;20189;-57
2022/11/07 00:38:49;;;;;;;1999.90;999.90;;;;;;;10.46;100.00;95311.28;5019169;28;20248;-58
2022/11/07 00:41:15;;;;;;;1999.90;999.90;;;;;;;10.41;100.00;95319.13;5018791;28;20179;-57
2022/11/07 00:43:40;;;;;;;1999.90;999.90;;;;;;;10.35;100.00;95313.31;5019238;28;20183;-56
2022/11/07 00:46:07;;;;;;;1999.90;999.90;;;;;;;10.32;100.00;95321.53;5019030;28;20174;-55
2022/11/07 00:48:33;;;;;;;1999.90;999.90;;;;;;;10.26;100.00;95325.88;5019258;28;20186;-57
2022/11/07 00:51:11;;;;;;;1999.90;999.90;;;;;;;10.23;100.00;95326.69;5018484;28;20179;-54
2022/11/07 00:53:37;;;;;;;1999.90;999.90;;;;;;;10.24;100.00;95326.28;5018841;28;20269;-56
2022/11/07 00:56:05;;;;;;;1999.90;999.90;;;;;;;10.30;100.00;95334.81;5019272;28;20182;-62
2022/11/07 00:58:30;;;;;;;1999.90;999.90;;;;;;;10.30;100.00;95329.34;5018581;28;20206;-58
2022/11/07 01:00:56;;;;;;;1999.90;999.90;;;;;;;10.35;100.00;95337.09;5018707;28;20530;-62
2022/11/07 01:06:05;;;;;;;1999.90;999.90;;;;;;;10.46;100.00;95343.25;5036464;28;20178;-62
2022/11/07 01:08:31;;;;;;;1999.90;999.90;;;;;;;10.51;100.00;95351.00;5019210;28;20178;-62
2022/11/07 01:10:58;;;;;;;1999.90;999.90;;;;;;;10.63;100.00;95343.09;5035820;28;20175;-62
2022/11/07 01:13:24;;;;;;;1999.90;999.90;;;;;;;10.78;100.00;95343.72;5018393;28;20225;-62
2022/11/07 01:15:50;;;;;;;1999.90;999.90;;;;;;;10.87;100.00;95341.28;5018606;28;20167;-59
2022/11/07 01:18:15;;;;;;;1999.90;999.90;;;;;;;11.02;100.00;95339.97;5018143;28;20265;-62
2022/11/07 01:20:41;;;;;;;1999.90;999.90;;;;;;;11.09;100.00;95348.09;5018606;28;20306;-62
2022/11/07 01:23:07;;;;;;;1999.90;999.90;;;;;;;11.17;100.00;95338.63;5017893;28;20535;-62
2022/11/07 01:25:35;;;;;;;1999.90;999.90;;;;;;;11.22;100.00;95340.91;5034462;28;20174;-62
2022/11/07 01:28:01;;;;;;;1999.90;999.90;;;;;;;11.25;100.00;95346.34;5018074;28;20195;-62
2022/11/07 01:30:26;;;;;;;1999.90;999.90;;;;;;;11.32;100.00;95343.50;5018036;28;20177;-62
2022/11/07 01:32:51;;;;;;;1999.90;999.90;;;;;;;11.36;100.00;95338.03;5018581;28;20195;-57
2022/11/07 01:35:17;;;;;;;1999.90;999.90;;;;;;;11.42;100.00;95344.56;5017947;28;20178;-65
2022/11/07 01:37:42;;;;;;;1999.90;999.90;;;;;;;11.44;100.00;95353.16;5018025;28;20166;-61
2022/11/07 01:40:08;;;;;;;1999.90;999.90;;;;;;;11.44;100.00;95344.94;5018545;28;20176;-61
2022/11/07 01:42:33;;;;;;;1999.90;999.90;;;;;;;11.43;100.00;95351.56;5017550;28;20270;-62
2022/11/07 01:44:59;;;;;;;1999.90;999.90;;;;;;;11.42;100.00;95355.50;5018483;28;20262;-62
2022/11/07 01:47:30;;;;;;;1999.90;999.90;;;;;;;11.40;100.00;95357.88;5017825;28;20177;-63
2022/11/07 01:49:57;;;;;;;1999.90;999.90;;;;;;;11.33;100.00;95363.44;5017641;28;20643;-62
2022/11/07 01:52:32;;;;;;;1999.90;999.90;;;;;;;11.26;100.00;95363.53;5017500;28;20167;-67
2022/11/07 01:55:09;;;;;;;1999.90;999.90;;;;;;;11.19;100.00;95369.84;5018094;28;20170;-66
2022/11/07 01:57:41;;;;;;;1999.90;999.90;;;;;;;11.11;100.00;95370.31;5017180;28;20547;-67
2022/11/07 02:00:10;;;;;;;1999.90;999.90;;;;;;;11.12;100.00;95372.66;5018179;28;20171;-66
2022/11/07 02:02:37;;;;;;;1999.90;999.90;;;;;;;11.13;100.00;95371.47;5018078;28;20178;-67
2022/11/07 02:05:05;;;;;;;1999.90;999.90;;;;;;;11.15;100.00;95373.78;5017127;28;20225;-66
2022/11/07 02:07:31;;;;;;;1999.90;999.90;;;;;;;11.17;100.00;95372.19;5018115;28;20265;-66
2022/11/07 02:09:58;;;;;;;1999.90;999.90;;;;;;;11.24;100.00;95363.91;5017407;28;20176;-61
2022/11/07 02:12:25;;;;;;;1999.90;999.90;;;;;;;11.21;100.00;95361.22;5016887;28;20236;-60
2022/11/07 02:14:50;;;;;;;1999.90;999.90;;;;;;;11.26;100.00;95374.44;5017210;28;20217;-59
2022/11/07 02:17:17;;;;;;;1999.90;999.90;;;;;;;11.29;100.00;95374.41;5017280;28;20225;-58
2022/11/07 02:19:46;;;;;;;1999.90;999.90;;;;;;;11.38;100.00;95365.72;5013375;28;20228;-58
2022/11/07 02:22:39;;;;;;;1999.90;999.90;;;;;;;11.37;100.00;95364.16;5013488;28;20177;-58
2022/11/07 02:25:11;;;;;;;1999.90;999.90;;;;;;;11.40;100.00;95369.59;5013623;28;20183;-57
2022/11/07 02:27:38;;;;;;;1999.90;999.90;;;;;;;11.34;100.00;95362.25;5013437;28;20167;-58
2022/11/07 02:30:16;;;;;;;1999.90;999.90;;;;;;;11.36;100.00;95366.13;5013496;28;20191;-58
2022/11/07 02:32:42;;;;;;;1999.90;999.90;;;;;;;11.33;100.00;95369.66;5013545;28;20238;-57
2022/11/07 02:35:40;;;;;;;1999.90;999.90;;;;;;;11.27;100.00;95362.31;5013898;28;20226;-57
2022/11/07 02:38:26;;;;;;;1999.90;999.90;;;;;;;11.23;100.00;95364.31;5013489;28;20235;-56
2022/11/07 02:40:58;;;;;;;1999.90;999.90;;;;;;;11.18;100.00;95372.97;5014152;28;20176;-57
2022/11/07 02:43:26;;;;;;;1999.90;999.90;;;;;;;11.11;100.00;95367.59;5013525;28;20179;-57
2022/11/07 02:45:54;;;;;;;1999.90;999.90;;;;;;;11.01;100.00;95369.25;5014505;28;20263;-58
2022/11/07 02:48:19;;;;;;;1999.90;999.90;;;;;;;10.95;100.00;95372.81;5014346;28;20186;-59
2022/11/07 02:50:44;;;;;;;1999.90;999.90;;;;;;;10.85;100.00;95376.44;5013300;28;20263;-62
2022/11/07 02:53:10;;;;;;;1999.90;999.90;;;;;;;10.86;100.00;95378.00;5013416;28;20237;-64
2022/11/07 02:55:35;;;;;;;1999.90;999.90;;;;;;;10.83;100.00;95374.13;5013516;28;20238;-63
2022/11/07 02:58:01;;;;;;;1999.90;999.90;;;;;;;10.85;100.00;95370.97;5013732;28;20199;-63
2022/11/07 03:00:26;;;;;;;1999.90;999.90;;;;;;;10.86;100.00;95367.06;5013899;28;20176;-62
2022/11/07 03:02:52;;;;;;;1999.90;999.90;;;;;;;10.82;100.00;95360.88;5013710;28;20259;-62
2022/11/07 03:05:18;;;;;;;1999.90;999.90;;;;;;;10.85;100.00;95365.53;5013030;28;20196;-55
2022/11/07 03:07:46;;;;;;;1999.90;999.90;;;;;;;10.82;100.00;95366.31;5013981;28;20285;-62
2022/11/07 03:10:12;;;;;;;1999.90;999.90;;;;;;;10.83;100.00;95368.66;5013575;28;20191;-57
2022/11/07 03:12:38;;;;;;;1999.90;999.90;;;;;;;10.78;100.00;95355.41;5013228;28;20176;-57
2022/11/07 03:15:05;;;;;;;1999.90;999.90;;;;;;;10.73;100.00;95364.06;5013333;28;20171;-57
2022/11/07 03:17:30;;;;;;;1999.90;999.90;;;;;;;10.72;100.00;95356.28;5013157;28;20649;-58
2022/11/07 03:19:56;;;;;;;1999.90;999.90;;;;;;;10.74;100.00;95353.94;5013327;28;20231;-57
2022/11/07 03:22:22;;;;;;;1999.90;999.90;;;;;;;10.75;100.00;95355.47;5013227;28;20181;-57
2022/11/07 03:24:47;;;;;;;1999.90;999.90;;;;;;;10.74;100.00;95359.38;5013133;28;20180;-62
2022/11/07 03:27:14;;;;;;;1999.90;999.90;;;;;;;10.77;100.00;95361.28;5013120;28;20175;-61
2022/11/07 03:29:40;;;;;;;1999.90;999.90;;;;;;;10.78;100.00;95368.31;5012658;28;20229;-60
2022/11/07 03:32:05;;;;;;;1999.90;999.90;;;;;;;10.77;100.00;95364.00;5013390;28;20176;-60
2022/11/07 03:34:31;;;;;;;1999.90;999.90;;;;;;;10.72;100.00;95372.66;5013547;28;20167;-62
2022/11/07 03:36:56;;;;;;;1999.90;999.90;;;;;;;10.68;100.00;95367.25;5013379;28;20175;-60
2022/11/07 03:39:21;;;;;;;1999.90;999.90;;;;;;;10.62;100.00;95365.31;5013029;28;20274;-60
2022/11/07 03:41:47;;;;;;;1999.90;999.90;;;;;;;10.60;100.00;95367.69;5012890;28;20179;-65
2022/11/07 03:44:12;;;;;;;1999.90;999.90;;;;;;;10.57;100.00;95368.50;5013109;28;20182;-58
2022/11/07 03:46:37;;;;;;;1999.90;999.90;;;;;;;10.52;100.00;95379.88;5013817;28;20167;-58
2022/11/07 03:49:03;;;;;;;1999.90;999.90;;;;;;;10.45;100.00;95379.94;5015642;28;20545;-57
2022/11/07 03:51:28;;;;;;;1999.90;999.90;;;;;;;10.41;100.00;95379.94;5016437;28;20172;-58
2022/11/07 03:53:54;;;;;;;1999.90;999.90;;;;;;;10.32;100.00;95376.91;5016680;28;20265;-58
2022/11/07 03:56:19;;;;;;;1999.90;999.90;;;;;;;10.24;100.00;95380.06;5017279;28;20171;-57
2022/11/07 03:58:44;;;;;;;1999.90;999.90;;;;;;;10.18;100.00;95379.72;5016757;28;20507;-57
2022/11/07 04:01:10;;;;;;;1999.90;999.90;;;;;;;10.08;100.00;95378.63;5016460;28;20262;-57
2022/11/07 04:03:36;;;;;;;1999.90;999.90;;;;;;;10.04;100.00;95383.31;5016040;28;20206;-58
2022/11/07 04:06:02;;;;;;;1999.90;999.90;;;;;;;10.00;100.00;95381.75;5016969;28;20186;-58
2022/11/07 04:08:27;;;;;;;1999.90;999.90;;;;;;;9.96;100.00;95392.72;5016237;28;20172;-58
2022/11/07 04:10:52;;;;;;;1999.90;999.90;;;;;;;9.96;100.00;95398.16;5016238;28;20267;-59
2022/11/07 04:18:45;;;;;;;1999.90;999.90;;;;;;;9.96;100.00;95398.16;5017483;28;20210;-57
2022/11/07 04:21:11;;;;;;;1999.90;999.90;;;;;;;9.98;100.00;95395.81;5015891;28;20231;-65
2022/11/07 04:23:36;;;;;;;1999.90;999.90;;;;;;;9.99;100.00;95391.88;5016256;28;20227;-55
2022/11/07 04:28:45;;;;;;;1999.90;999.90;;;;;;;9.90;100.00;95397.03;5017018;28;20178;-56
2022/11/07 04:31:11;;;;;;;1999.90;999.90;;;;;;;9.84;100.00;95395.88;5015926;28;20183;-56
2022/11/07 04:33:36;;;;;;;1999.90;999.90;;;;;;;9.83;100.00;95391.59;5015761;28;20266;-55
2022/11/07 04:36:02;;;;;;;1999.90;999.90;;;;;;;9.80;100.00;95395.13;5016631;28;20183;-55
2022/11/07 04:38:27;;;;;;;1999.90;999.90;;;;;;;9.78;100.00;95392.03;5016034;28;20207;-58
2022/11/07 04:40:57;;;;;;;1999.90;999.90;;;;;;;9.75;100.00;95408.41;5016365;28;20262;-57
2022/11/07 04:43:27;;;;;;;1999.90;999.90;;;;;;;9.73;100.00;95403.34;5015423;28;20194;-57
2022/11/07 04:45:52;;;;;;;1999.90;999.90;;;;;;;9.69;100.00;95404.56;5016336;28;20195;-57
2022/11/07 04:48:18;;;;;;;1999.90;999.90;;;;;;;9.62;100.00;95399.13;5015646;28;20186;-57
2022/11/07 04:50:45;;;;;;;1999.90;999.90;;;;;;;9.57;100.00;95403.03;5015405;28;20552;-58
2022/11/07 04:53:15;;;;;;;1999.90;999.90;;;;;;;9.53;100.00;95391.38;5015459;28;20179;-57
2022/11/07 04:55:41;;;;;;;1999.90;999.90;;;;;;;9.51;100.00;95390.97;5015966;28;20249;-58
2022/11/07 04:58:07;;;;;;;1999.90;999.90;;;;;;;9.54;100.00;95386.69;5015583;28;20199;-58
2022/11/07 05:00:33;;;;;;;1999.90;999.90;;;;;;;9.52;100.00;95389.81;5015376;28;20221;-58
2022/11/07 05:02:58;;;;;;;1999.90;999.90;;;;;;;9.48;100.00;95399.19;5015960;28;20226;-58
2022/11/07 05:05:24;;;;;;;1999.90;999.90;;;;;;;9.46;100.00;95396.06;5014843;28;20289;-58
2022/11/07 05:07:49;;;;;;;1999.90;999.90;;;;;;;9.44;100.00;95391.00;5015363;28;20229;-57
2022/11/07 05:10:26;;;;;;;1999.90;999.90;;;;;;;9.42;100.00;95390.63;5015001;28;20183;-57
2022/11/07 05:12:52;;;;;;;1999.90;999.90;;;;;;;9.39;100.00;95394.16;5015820;28;20182;-58
2022/11/07 05:15:18;;;;;;;1999.90;999.90;;;;;;;9.39;100.00;95388.69;5015833;28;20183;-68
2022/11/07 05:17:46;;;;;;;1999.90;999.90;;;;;;;9.35;100.00;95390.66;5015211;28;20201;-55
2022/11/07 05:20:33;;;;;;;1999.90;999.90;;;;;;;9.30;100.00;95393.81;5014731;28;20231;-56
2022/11/07 05:23:11;;;;;;;1999.90;999.90;;;;;;;9.25;100.00;95396.91;5015666;28;20185;-55
2022/11/07 05:25:42;;;;;;;1999.90;999.90;;;;;;;9.25;100.00;95396.91;5015442;28;20198;-57
2022/11/07 05:28:11;;;;;;;1999.90;999.90;;;;;;;9.26;100.00;95403.16;5014741;28;20211;-57
2022/11/07 05:30:39;;;;;;;1999.90;999.90;;;;;;;9.26;100.00;95401.19;5014930;28;20178;-57
2022/11/07 05:33:05;;;;;;;1999.90;999.90;;;;;;;9.21;100.00;95400.81;5014709;28;20179;-60
2022/11/07 05:35:30;;;;;;;1999.90;999.90;;;;;;;9.19;100.00;95403.97;5014976;28;20188;-59
2022/11/07 05:37:55;;;;;;;1999.90;999.90;;;;;;;9.19;100.00;95406.69;5014625;28;20579;-58
2022/11/07 05:40:21;;;;;;;1999.90;999.90;;;;;;;9.16;100.00;95412.13;5015192;28;20187;-58
2022/11/07 05:42:46;;;;;;;1999.90;999.90;;;;;;;9.08;100.00;95411.38;5015042;28;20175;-59
2022/11/07 05:45:11;;;;;;;1999.90;999.90;;;;;;;9.06;100.00;95405.53;5014291;28;20186;-58
2022/11/07 05:47:37;;;;;;;1999.90;999.90;;;;;;;9.03;100.00;95411.00;5014305;28;20187;-59
2022/11/07 05:50:02;;;;;;;1999.90;999.90;;;;;;;9.00;100.00;95412.53;5014559;28;20202;-58
2022/11/07 05:52:28;;;;;;;1999.90;999.90;;;;;;;8.96;100.00;95421.91;5014489;28;20183;-60
2022/11/07 05:54:53;;;;;;;1999.90;999.90;;;;;;;8.93;100.00;95426.16;5014361;28;20321;-61
2022/11/07 05:57:18;;;;;;;1999.90;999.90;;;;;;;8.89;100.00;95428.13;5014367;28;20206;-60
2022/11/07 05:59:44;;;;;;;1999.90;999.90;;;;;;;8.85;100.00;95424.63;5014094;28;20241;-61
2022/11/07 06:02:09;;;;;;;1999.90;999.90;;;;;;;8.83;100.00;95424.25;5014469;28;20198;-60
2022/11/07 06:04:34;;;;;;;1999.90;999.90;;;;;;;8.92;100.00;95432.00;5014472;28;20249;-61
2022/11/07 06:07:00;;;;;;;1999.90;999.90;;;;;;;8.89;100.00;95433.56;5014308;28;20178;-60
2022/11/07 06:09:25;;;;;;;1999.90;999.90;;;;;;;8.89;100.00;95438.25;5013985;28;20171;-56
2022/11/07 06:11:50;;;;;;;1999.90;999.90;;;;;;;8.86;100.00;95439.78;5013915;28;20177;-57
2022/11/07 06:14:16;;;;;;;1999.90;999.90;;;;;;;8.89;100.00;95438.25;5014487;28;20234;-59
2022/11/07 06:16:41;;;;;;;1999.90;999.90;;;;;;;8.90;100.00;95446.03;5014843;28;20183;-59
2022/11/07 06:19:07;;;;;;;1999.90;999.90;;;;;;;8.93;100.00;95444.47;5014975;28;20203;-59
2022/11/07 06:21:33;;;;;;;1999.90;999.90;;;;;;;9.00;100.00;95447.19;5016979;28;20291;-59
2022/11/07 06:23:59;;;;;;;1999.90;999.90;;;;;;;9.20;100.00;95454.53;5017229;28;20179;-59
2022/11/07 06:26:25;;;;;;;1999.90;999.90;;;;;;;9.77;100.00;95464.09;5016964;28;20181;-59
2022/11/07 06:28:50;;;;;;;1999.90;999.90;;;;;;;10.23;100.00;95463.13;5017995;28;20210;-62
2022/11/07 06:31:16;;;;;;;1999.90;999.90;;;;;;;10.82;100.00;95465.44;5017167;28;20272;-58
2022/11/07 06:33:41;;;;;;;1999.90;999.90;;;;;;;11.27;100.00;95471.69;5017036;28;20186;-58
2022/11/07 06:36:11;;;;;;;1999.90;999.90;;;;;;;12.06;100.00;95473.94;5017516;28;20178;-58
2022/11/07 06:38:38;;;;;;;1999.90;999.90;;;;;;;12.40;100.00;95480.94;5034237;28;20647;-58
2022/11/07 06:41:08;;;;;;;1999.90;999.90;;;;;;;12.21;100.00;95478.81;5017095;28;20180;-58
2022/11/07 06:43:34;;;;;;;1999.90;999.90;;;;;;;11.71;100.00;95485.31;5017089;28;20175;-58
2022/11/07 06:46:09;;;;;;;1999.90;999.90;;;;;;;11.30;100.00;95482.59;5034541;28;20183;-60
2022/11/07 06:48:34;;;;;;;1999.90;999.90;;;;;;;11.04;100.00;95485.94;5016777;28;20171;-63
2022/11/07 06:51:02;;;;;;;1999.90;999.90;;;;;;;11.74;100.00;95489.97;5017415;28;20183;-62
2022/11/07 06:53:28;;;;;;;1999.90;999.90;;;;;;;13.02;100.00;95494.09;5016789;28;20172;-62
2022/11/07 06:55:54;;;;;;;1999.90;999.90;;;;;;;14.16;100.00;95494.38;5017026;28;20179;-62
2022/11/07 06:58:20;;;;;;;1999.90;999.90;;;;;;;14.78;100.00;95497.75;5016670;28;20280;-64
2022/11/07 07:00:46;;;;;;;1999.90;999.90;;;;;;;15.28;100.00;95500.88;5017304;28;20220;-63
2022/11/07 07:03:12;;;;;;;1999.90;999.90;;;;;;;15.90;100.00;95500.47;5016487;28;20175;-62
2022/11/07 07:05:37;;;;;;;1999.90;999.90;;;;;;;16.37;100.00;95501.53;5016504;28;20194;-59
2022/11/07 07:08:04;;;;;;;1999.90;999.90;;;;;;;16.34;100.00;95494.13;5016397;28;20231;-60
2022/11/07 07:10:30;;;;;;;1999.90;999.90;;;;;;;15.44;100.00;95506.41;5016630;28;20194;-60
2022/11/07 07:12:56;;;;;;;1999.90;999.90;;;;;;;15.37;100.00;95506.59;5016404;28;20171;-60
2022/11/07 07:15:21;;;;;;;1999.90;999.90;;;;;;;16.22;100.00;95505.13;5016457;28;20189;-59
2022/11/07 07:17:47;;;;;;;1999.90;999.90;;;;;;;16.90;100.00;95501.94;5016486;28;20213;-59
2022/11/07 07:20:13;;;;;;;1999.90;999.90;;;;;;;17.00;100.00;95509.13;5016813;28;20287;-59
2022/11/07 07:22:38;;;;;;;1999.90;999.90;;;;;;;15.25;100.00;95510.00;5017510;28;20598;-60
2022/11/07 07:25:04;;;;;;;1999.90;999.90;;;;;;;14.45;100.00;95518.13;5021022;28;20181;-62
2022/11/07 07:27:30;;;;;;;1999.90;999.90;;;;;;;13.77;100.00;95522.56;5020752;28;20185;-62
2022/11/07 07:29:55;;;;;;;1999.90;999.90;;;;;;;14.32;100.00;95514.50;5020519;28;20178;-62
2022/11/07 07:32:23;;;;;;;1999.90;999.90;;;;;;;14.35;100.00;95519.09;5019986;28;20244;-63
2022/11/07 07:34:49;;;;;;;1999.90;999.90;;;;;;;13.74;100.00;95515.19;5020446;28;20182;-63
2022/11/07 07:37:14;;;;;;;1999.90;999.90;;;;;;;13.62;100.00;95515.03;5021090;28;20175;-63
2022/11/07 07:39:40;;;;;;;1999.90;999.90;;;;;;;14.32;100.00;95522.72;5020464;28;20206;-63
2022/11/07 07:42:05;;;;;;;1999.90;999.90;;;;;;;15.35;100.00;95522.75;5020317;28;20171;-61
2022/11/07 07:44:30;;;;;;;1999.90;999.90;;;;;;;16.22;100.00;95508.63;5020781;28;20198;-62
2022/11/07 07:46:56;;;;;;;1999.90;999.90;;;;;;;16.83;100.00;95510.44;5020078;28;20211;-61
2022/11/07 07:49:21;;;;;;;1999.90;999.90;;;;;;;17.46;100.00;95508.44;5020123;28;20175;-61
2022/11/07 07:51:46;;;;;;;1999.90;999.90;;;;;;;17.66;100.00;95506.97;5019914;28;20209;-61
2022/11/07 07:54:12;;;;;;;1999.90;999.90;;;;;;;18.23;100.00;95505.75;5020004;28;20178;-61
2022/11/07 07:56:37;;;;;;;1999.90;999.90;;;;;;;18.33;100.00;95510.16;5020330;28;20193;-61
2022/11/07 07:59:02;;;;;;;1999.90;999.90;;;;;;;18.98;100.00;95497.03;5020011;28;20237;-58
2022/11/07 08:01:28;;;;;;;1999.90;999.90;;;;;;;18.96;100.00;95499.47;5019816;28;20186;-63
2022/11/07 08:03:53;;;;;;;1999.90;999.90;;;;;;;19.29;100.00;95514.41;5019605;28;20194;-57
2022/11/07 08:06:19;;;;;;;1999.90;999.90;;;;;;;19.64;100.00;95512.97;5019638;28;20177;-57
2022/11/07 08:08:44;;;;;;;1999.90;999.90;;;;;;;20.13;94.23;95516.44;5019905;28;20185;-56
2022/11/07 08:11:10;;;;;;;1999.90;999.90;;;;;;;20.08;93.69;95508.72;5019735;28;20186;-57
2022/11/07 08:13:35;;;;;;;1999.90;999.90;;;;;;;20.79;87.31;95504.34;5019631;28;20182;-58
2022/11/07 08:16:04;;;;;;;1999.90;999.90;;;;;;;21.28;82.15;95507.63;5020184;28;20175;-57
2022/11/07 08:18:29;;;;;;;1999.90;999.90;;;;;;;21.37;81.04;95504.78;5019568;28;20207;-60
2022/11/07 08:20:55;;;;;;;1999.90;999.90;;;;;;;21.37;77.68;95506.78;5019142;28;20252;-58
2022/11/07 08:23:22;;;;;;;1999.90;999.90;;;;;;;21.61;78.17;95505.59;5019319;28;20175;-59
2022/11/07 08:25:58;;;;;;;1999.90;999.90;;;;;;;22.09;74.05;95506.38;5019212;28;20268;-58
2022/11/07 08:28:26;;;;;;;1999.90;999.90;;;;;;;22.32;74.08;95514.69;5019803;28;20693;-59
2022/11/07 08:31:06;;;;;;;1999.90;999.90;;;;;;;22.27;72.37;95512.59;5019762;28;20170;-58
2022/11/07 08:33:32;;;;;;;1999.90;999.90;;;;;;;22.30;69.40;95511.63;5019519;28;20174;-59
2022/11/07 08:35:59;;;;;;;1999.90;999.90;;;;;;;22.25;68.51;95512.28;5019172;28;20182;-60
2022/11/07 08:38:25;;;;;;;1999.90;999.90;;;;;;;22.42;70.30;95521.75;5019952;28;20194;-60
2022/11/07 08:40:51;;;;;;;1999.90;999.90;;;;;;;22.17;70.45;95516.69;5019399;28;20178;-64
2022/11/07 08:43:17;;;;;;;1999.90;999.90;;;;;;;22.02;72.05;95521.44;5018730;28;20590;-65
2022/11/07 08:45:43;;;;;;;1999.90;999.90;;;;;;;22.05;70.26;95516.94;5019542;28;20338;-66
2022/11/07 08:48:08;;;;;;;1999.90;999.90;;;;;;;22.05;73.10;95515.53;5018820;28;20182;-65
2022/11/07 08:50:34;;;;;;;1999.90;999.90;;;;;;;22.20;69.77;95524.09;5019049;28;20179;-65
2022/11/07 08:52:59;;;;;;;1999.90;999.90;;;;;;;22.01;70.89;95519.91;5019379;28;20174;-65
2022/11/07 08:55:25;;;;;;;1999.90;999.90;;;;;;;22.35;67.42;95522.09;5018692;28;20190;-62
2022/11/07 08:57:50;;;;;;;1999.90;999.90;;;;;;;21.80;66.98;95520.97;5018935;28;20171;-61
2022/11/07 09:00:16;;;;;;;1999.90;999.90;;;;;;;22.31;68.86;95521.53;5018783;28;20248;-61
2022/11/07 09:02:41;;;;;;;1999.90;999.90;;;;;;;22.79;67.07;95524.22;5018708;28;20175;-62
2022/11/07 09:05:07;;;;;;;1999.90;999.90;;;;;;;22.80;64.26;95525.75;5019380;28;20199;-63
2022/11/07 09:07:33;;;;;;;1999.90;999.90;;;;;;;22.94;67.14;95520.19;5019079;28;20201;-63
2022/11/07 09:09:58;;;;;;;1999.90;999.90;;;;;;;22.88;63.32;95516.53;5018832;28;20178;-64
2022/11/07 09:12:24;;;;;;;1999.90;999.90;;;;;;;23.01;65.04;95524.63;5018505;28;20198;-62
2022/11/07 09:14:49;;;;;;;1999.90;999.90;;;;;;;22.92;67.85;95521.91;5018322;28;20218;-59
2022/11/07 09:17:16;;;;;;;1999.90;999.90;;;;;;;22.90;67.10;95530.00;5018364;28;20171;-58
2022/11/07 09:19:42;;;;;;;1999.90;999.90;;;;;;;22.75;67.05;95529.19;5018005;28;20745;-58
2022/11/07 09:22:07;;;;;;;1999.90;999.90;;;;;;;22.85;67.07;95527.84;5018674;28;20178;-58
2022/11/07 09:24:32;;;;;;;1999.90;999.90;;;;;;;23.05;66.10;95533.53;5018121;28;20190;-58
2022/11/07 09:26:58;;;;;;;1999.90;999.90;;;;;;;23.01;67.50;95530.19;5018191;28;20179;-59
2022/11/07 09:29:23;;;;;;;1999.90;999.90;;;;;;;22.90;67.27;95535.56;5018447;28;20265;-58
2022/11/07 09:31:49;;;;;;;1999.90;999.90;;;;;;;22.98;67.84;95531.88;5017995;28;20178;-60
2022/11/07 09:34:15;;;;;;;1999.90;999.90;;;;;;;23.04;66.44;95534.78;5017952;28;20174;-59
2022/11/07 09:36:40;;;;;;;1999.90;999.90;;;;;;;23.27;68.21;95526.34;5017556;28;20171;-60
2022/11/07 09:39:05;;;;;;;1999.90;999.90;;;;;;;23.22;66.38;95534.59;5017607;28;20245;-59
2022/11/07 09:41:59;;;;;;;1999.90;999.90;;;;;;;22.27;68.62;95539.63;5017742;28;20290;-60
2022/11/07 09:44:50;;;;;;;1999.90;999.90;;;;;;;22.77;67.77;95532.28;5017619;28;20182;-60
2022/11/07 09:47:22;;;;;;;1999.90;999.90;;;;;;;22.94;66.30;95536.13;5018125;28;20191;-59
2022/11/07 09:50:21;;;;;;;1999.90;999.90;;;;;;;22.64;67.03;95528.97;5018678;28;20182;-62
2022/11/07 09:53:00;;;;;;;1999.90;999.90;;;;;;;22.12;68.17;95531.25;5035351;28;20179;-67
2022/11/07 09:55:41;;;;;;;1999.90;999.90;;;;;;;22.61;68.71;95529.97;5018141;28;20194;-67
2022/11/07 09:58:25;;;;;;;1999.90;999.90;;;;;;;22.56;68.22;95533.41;5017484;28;20312;-66
2022/11/07 10:00:52;;;;;;;1999.90;999.90;;;;;;;22.40;67.72;95531.81;5017916;28;20268;-65
2022/11/07 10:03:17;;;;;;;1999.90;999.90;;;;;;;22.67;68.67;95533.59;5017298;28;20184;-66
2022/11/07 10:05:52;;;;;;;1999.90;999.90;;;;;;;22.39;68.44;95521.91;5035078;28;20174;-67
2022/11/07 10:08:17;;;;;;;1999.90;999.90;;;;;;;22.23;71.63;95527.94;5018209;28;20655;-59
2022/11/07 10:10:55;;;;;;;1999.90;999.90;;;;;;;22.07;71.50;95520.03;5017289;28;20178;-59
2022/11/07 10:13:48;;;;;;;1999.90;999.90;;;;;;;21.64;71.83;95521.31;5017887;28;20167;-59
2022/11/07 10:16:35;;;;;;;1999.90;999.90;;;;;;;21.99;72.11;95525.16;5017276;28;20186;-58
2022/11/07 10:19:21;;;;;;;1999.90;999.90;;;;;;;21.86;72.79;95516.28;5017521;28;20201;-60
2022/11/07 10:22:23;;;;;;;1999.90;999.90;;;;;;;21.40;73.85;95514.97;5017787;28;20231;-59
2022/11/07 10:24:52;;;;;;;1999.90;999.90;;;;;;;21.20;78.21;95525.84;5017551;28;20193;-58
2022/11/07 10:27:19;;;;;;;1999.90;999.90;;;;;;;21.12;77.61;95521.13;5017187;28;20193;-62
2022/11/07 10:29:49;;;;;;;1999.90;999.90;;;;;;;21.40;79.32;95517.75;5017733;28;20185;-59
2022/11/07 10:32:24;;;;;;;1999.90;999.90;;;;;;;21.63;76.81;95527.34;5016963;28;20217;-58
2022/11/07 10:35:15;;;;;;;1999.90;999.90;;;;;;;21.58;73.69;95523.22;5016968;28;20174;-58
2022/11/07 10:37:40;;;;;;;1999.90;999.90;;;;;;;21.22;78.87;95534.50;5017574;28;20224;-59
2022/11/07 10:40:16;;;;;;;1999.90;999.90;;;;;;;21.37;76.42;95517.91;5017524;28;20203;-59
2022/11/07 10:42:43;;;;;;;1999.90;999.90;;;;;;;21.33;75.54;95523.63;5016817;28;20229;-59
2022/11/07 10:45:16;;;;;;;1999.90;999.90;;;;;;;20.38;81.53;95527.22;5017214;28;20181;-59
2022/11/07 10:47:42;;;;;;;1999.90;999.90;;;;;;;19.89;85.70;95518.25;5017233;28;20178;-59
2022/11/07 10:50:22;;;;;;;1999.90;999.90;;;;;;;19.37;92.29;95516.44;5016877;28;20178;-59
2022/11/07 10:52:59;;;;;;;1999.90;999.90;;;;;;;18.53;100.00;95513.38;5017321;28;20173;-59
2022/11/07 10:55:26;;;;;;;1999.90;999.90;;;;;;;18.19;100.00;95516.97;5017297;28;20166;-60
2022/11/07 10:58:16;;;;;;;1999.90;999.90;;;;;;;18.05;100.00;95517.47;5019350;28;20186;-59
2022/11/07 11:00:43;;;;;;;1999.90;999.90;;;;;;;17.83;100.00;95511.13;5021358;28;20170;-60
2022/11/07 11:03:23;;;;;;;1999.90;999.90;;;;;;;17.90;100.00;95515.63;5038236;28;20604;-62
2022/11/07 11:05:49;;;;;;;1999.90;999.90;;;;;;;17.61;100.00;95513.06;5020609;28;20205;-58